Time;durP1;ratioP1;P1;durP2;ratioP2;P2;SDS_P1;SDS_P2;PMS_P1;PMS_P2;Temp;Humidity;BMP_temperature;BMP_pressure;BME280_temperature;BME280_humidity;BME280_pressure;Samples;Min_cycle;Max_cycle;Signal;HPM_P1;HPM_P2
2022/07/13 00:00:58;;;;;;;;;;;;;;;;;;5077082;28;1381;-71
2022/07/13 00:03:23;;;;;;;;;;;;;;;;;;5080451;28;1186;-72
2022/07/13 00:05:48;;;;;;;;;;;;;;;;;;5080100;28;1512;-72
2022/07/13 00:08:13;;;;;;;;;;;;;;;;;;5078405;28;1513;-71
2022/07/13 00:10:38;;;;;;;;;;;;;;;;;;5079377;28;1453;-71
2022/07/13 00:13:04;;;;;;;;;;;;;;;;;;5071231;28;1485;-71
2022/07/13 00:15:29;;;;;;;;;;;;;;;;;;5078188;28;1898;-73
2022/07/13 00:17:54;;;;;;;;;;;;;;;;;;5077803;28;1394;-73
2022/07/13 00:20:19;;;;;;;;;;;;;;;;;;5080500;28;1466;-74
2022/07/13 00:22:45;;;;;;;;;;;;;;;;;;5072677;28;1538;-73
2022/07/13 00:25:10;;;;;;;;;;;;;;;;;;5081437;28;1405;-73
2022/07/13 00:27:35;;;;;;;;;;;;;;;;;;5074107;28;1477;-72
2022/07/13 00:30:00;;;;;;;;;;;;;;;;;;5082329;28;1151;-72
2022/07/13 00:32:25;;;;;;;;;;;;;;;;;;5076068;28;1635;-74
2022/07/13 00:34:51;;;;;;;;;;;;;;;;;;5082832;28;1909;-74
2022/07/13 00:37:16;;;;;;;;;;;;;;;;;;5076660;28;1608;-74
2022/07/13 00:39:41;;;;;;;;;;;;;;;;;;5082309;28;1222;-74
2022/07/13 00:42:08;;;;;;;;;;;;;;;;;;5070305;28;1567;-74
2022/07/13 00:44:34;;;;;;;;;;;;;;;;;;5082963;28;977;-74
2022/07/13 00:46:59;;;;;;;;;;;;;;;;;;5077693;28;1357;-74
2022/07/13 00:49:24;;;;;;;;;;;;;;;;;;5083604;28;1115;-71
2022/07/13 00:51:50;;;;;;;;;;;;;;;;;;5083159;28;833;-71
2022/07/13 00:54:17;;;;;;;;;;;;;;;;;;5080714;28;1898;-71
2022/07/13 00:56:43;;;;;;;;;;;;;;;;;;5079467;28;1457;-71
2022/07/13 00:59:08;;;;;;;;;;;;;;;;;;5074710;28;1139;-71
2022/07/13 01:01:33;;;;;;;;;;;;;;;;;;5079571;28;1548;-71
2022/07/13 01:03:59;;;;;;;;;;;;;;;;;;5082928;28;1134;-71
2022/07/13 01:06:24;;;;;;;;;;;;;;;;;;5075489;28;1453;-71
2022/07/13 01:08:49;;;;;;;;;;;;;;;;;;5074311;28;1318;-71
2022/07/13 01:11:15;;;;;;;;;;;;;;;;;;5079804;28;1810;-71
2022/07/13 01:13:40;;;;;;;;;;;;;;;;;;5074972;28;1898;-72
2022/07/13 01:16:07;;;;;;;;;;;;;;;;;;5076157;28;1446;-72
2022/07/13 01:18:33;;;;;;;;;;;;;;;;;;5082615;28;1103;-72
2022/07/13 01:20:58;;;;;;;;;;;;;;;;;;5075217;28;1400;-72
2022/07/13 01:23:23;;;;;;;;;;;;;;;;;;5062875;28;1620;-73
2022/07/13 01:25:49;;;;;;;;;;;;;;;;;;5074714;28;1507;-72
2022/07/13 01:28:14;;;;;;;;;;;;;;;;;;5070311;28;1412;-71
2022/07/13 01:30:40;;;;;;;;;;;;;;;;;;5076225;28;1287;-71
2022/07/13 01:33:05;;;;;;;;;;;;;;;;;;5081544;28;1124;-71
2022/07/13 01:35:30;;;;;;;;;;;;;;;;;;5081972;28;1893;-71
2022/07/13 01:37:55;;;;;;;;;;;;;;;;;;5080698;28;1623;-71
2022/07/13 01:40:21;;;;;;;;;;;;;;;;;;5082276;28;1154;-71
2022/07/13 01:42:52;;;;;;;;;;;;;;;;;;5080684;28;1497;-71
2022/07/13 01:45:19;;;;;;;;;;;;;;;;;;5072193;28;1185;-71
2022/07/13 01:47:45;;;;;;;;;;;;;;;;;;5077846;28;1207;-71
2022/07/13 01:50:11;;;;;;;;;;;;;;;;;;5081131;28;1154;-72
2022/07/13 01:52:37;;;;;;;;;;;;;;;;;;5070855;28;1598;-72
2022/07/13 01:55:02;;;;;;;;;;;;;;;;;;5079665;28;1914;-72
2022/07/13 01:57:28;;;;;;;;;;;;;;;;;;5079143;28;1470;-72
2022/07/13 01:59:57;;;;;;;;;;;;;;;;;;5079783;28;1365;-72
2022/07/13 02:02:22;;;;;;;;;;;;;;;;;;5067723;28;1576;-72
2022/07/13 02:04:47;;;;;;;;;;;;;;;;;;5077062;28;1307;-72
2022/07/13 02:07:12;;;;;;;;;;;;;;;;;;5082148;28;1203;-72
2022/07/13 02:09:37;;;;;;;;;;;;;;;;;;5078367;28;1485;-72
2022/07/13 02:12:03;;;;;;;;;;;;;;;;;;5074108;28;1624;-72
2022/07/13 02:14:28;;;;;;;;;;;;;;;;;;5076861;28;1923;-71
2022/07/13 02:16:53;;;;;;;;;;;;;;;;;;5077575;28;1370;-71
2022/07/13 02:19:19;;;;;;;;;;;;;;;;;;5081983;28;1099;-72
2022/07/13 02:21:44;;;;;;;;;;;;;;;;;;5076408;28;1528;-71
2022/07/13 02:24:09;;;;;;;;;;;;;;;;;;5073803;28;1446;-72
2022/07/13 02:26:37;;;;;;;;;;;;;;;;;;5080361;28;1251;-72
2022/07/13 02:29:03;;;;;;;;;;;;;;;;;;5075895;28;1689;-73
2022/07/13 02:31:28;;;;;;;;;;;;;;;;;;5075111;28;1381;-73
2022/07/13 02:33:53;;;;;;;;;;;;;;;;;;5080342;28;1890;-73
2022/07/13 02:36:18;;;;;;;;;;;;;;;;;;5071929;28;1426;-73
2022/07/13 02:38:43;;;;;;;;;;;;;;;;;;5061857;28;1552;-72
2022/07/13 02:41:09;;;;;;;;;;;;;;;;;;5067193;28;1410;-72
2022/07/13 02:43:34;;;;;;;;;;;;;;;;;;5071575;28;1683;-73
2022/07/13 02:45:59;;;;;;;;;;;;;;;;;;5078561;28;1275;-73
2022/07/13 02:48:24;;;;;;;;;;;;;;;;;;5077453;28;1213;-73
2022/07/13 02:50:50;;;;;;;;;;;;;;;;;;5080947;28;1481;-73
2022/07/13 02:53:15;;;;;;;;;;;;;;;;;;5077276;28;1560;-72
2022/07/13 02:55:40;;;;;;;;;;;;;;;;;;5077306;28;1893;-73
2022/07/13 02:58:05;;;;;;;;;;;;;;;;;;5080001;28;1279;-73
2022/07/13 03:00:30;;;;;;;;;;;;;;;;;;5075808;28;1616;-73
2022/07/13 03:02:55;;;;;;;;;;;;;;;;;;5078934;28;1198;-73
2022/07/13 03:05:23;;;;;;;;;;;;;;;;;;5079988;28;1320;-73
2022/07/13 03:07:48;;;;;;;;;;;;;;;;;;5081146;28;1200;-72
2022/07/13 03:10:13;;;;;;;;;;;;;;;;;;5078877;28;1374;-73
2022/07/13 03:12:38;;;;;;;;;;;;;;;;;;5072332;28;1679;-71
2022/07/13 03:15:04;;;;;;;;;;;;;;;;;;5079086;28;1893;-71
2022/07/13 03:17:30;;;;;;;;;;;;;;;;;;5076340;28;1259;-71
2022/07/13 03:19:55;;;;;;;;;;;;;;;;;;5080324;28;1332;-72
2022/07/13 03:22:20;;;;;;;;;;;;;;;;;;5081436;28;861;-72
2022/07/13 03:24:45;;;;;;;;;;;;;;;;;;5076572;28;1457;-73
2022/07/13 03:27:10;;;;;;;;;;;;;;;;;;5073176;28;1700;-71
2022/07/13 03:29:36;;;;;;;;;;;;;;;;;;5077762;28;1530;-72
2022/07/13 03:32:02;;;;;;;;;;;;;;;;;;5073489;28;1613;-71
2022/07/13 03:34:27;;;;;;;;;;;;;;;;;;5079734;28;1955;-72
2022/07/13 03:36:52;;;;;;;;;;;;;;;;;;5064886;28;1489;-72
2022/07/13 03:39:17;;;;;;;;;;;;;;;;;;5070574;28;1445;-72
2022/07/13 03:41:42;;;;;;;;;;;;;;;;;;5073390;28;1616;-72
2022/07/13 03:44:08;;;;;;;;;;;;;;;;;;5079824;28;1167;-72
2022/07/13 03:46:33;;;;;;;;;;;;;;;;;;5073217;28;1632;-72
2022/07/13 03:48:58;;;;;;;;;;;;;;;;;;5080822;28;1139;-72
2022/07/13 03:51:23;;;;;;;;;;;;;;;;;;5080542;28;854;-72
2022/07/13 03:53:50;;;;;;;;;;;;;;;;;;5076131;28;1902;-74
2022/07/13 03:56:15;;;;;;;;;;;;;;;;;;5083506;28;1280;-75
2022/07/13 03:58:40;;;;;;;;;;;;;;;;;;5082920;28;1244;-74
2022/07/13 04:01:06;;;;;;;;;;;;;;;;;;5080567;28;1557;-72
2022/07/13 04:03:31;;;;;;;;;;;;;;;;;;5080122;28;1521;-76
2022/07/13 04:05:56;;;;;;;;;;;;;;;;;;5082828;28;1416;-75
2022/07/13 04:08:21;;;;;;;;;;;;;;;;;;5078964;28;1636;-74
2022/07/13 04:10:47;;;;;;;;;;;;;;;;;;5079646;28;1247;-74
2022/07/13 04:13:12;;;;;;;;;;;;;;;;;;5084088;28;1087;-72
2022/07/13 04:15:37;;;;;;;;;;;;;;;;;;5075451;28;1890;-71
2022/07/13 04:18:02;;;;;;;;;;;;;;;;;;5074386;28;1336;-72
2022/07/13 04:20:28;;;;;;;;;;;;;;;;;;5075018;28;1584;-71
2022/07/13 04:22:53;;;;;;;;;;;;;;;;;;5082476;28;1385;-71
2022/07/13 04:25:18;;;;;;;;;;;;;;;;;;5082675;28;928;-71
2022/07/13 04:27:43;;;;;;;;;;;;;;;;;;5074489;28;1644;-71
2022/07/13 04:30:09;;;;;;;;;;;;;;;;;;5063652;28;1000;-71
2022/07/13 04:32:34;;;;;;;;;;;;;;;;;;5063591;28;894;-71
2022/07/13 04:34:59;;;;;;;;;;;;;;;;;;5063437;28;1898;-71
2022/07/13 04:37:24;;;;;;;;;;;;;;;;;;5063409;28;1271;-71
2022/07/13 04:39:49;;;;;;;;;;;;;;;;;;5063389;28;822;-71
2022/07/13 04:42:14;;;;;;;;;;;;;;;;;;5075210;28;1556;-71
2022/07/13 04:44:40;;;;;;;;;;;;;;;;;;5083583;28;893;-71
2022/07/13 04:47:05;;;;;;;;;;;;;;;;;;5082170;28;1262;-72
2022/07/13 04:49:30;;;;;;;;;;;;;;;;;;5083216;28;1056;-72
2022/07/13 04:51:55;;;;;;;;;;;;;;;;;;5083819;28;874;-72
2022/07/13 04:54:21;;;;;;;;;;;;;;;;;;5082167;28;1886;-72
2022/07/13 04:56:46;;;;;;;;;;;;;;;;;;5082865;28;1192;-72
2022/07/13 04:59:12;;;;;;;;;;;;;;;;;;5081667;28;1587;-71
2022/07/13 05:01:37;;;;;;;;;;;;;;;;;;5083286;28;865;-72
2022/07/13 05:04:03;;;;;;;;;;;;;;;;;;5083260;28;992;-72
2022/07/13 05:06:28;;;;;;;;;;;;;;;;;;5081101;28;1548;-72
2022/07/13 05:08:54;;;;;;;;;;;;;;;;;;5083339;28;940;-71
2022/07/13 05:11:19;;;;;;;;;;;;;;;;;;5081490;28;1494;-71
2022/07/13 05:13:45;;;;;;;;;;;;;;;;;;5083120;28;1945;-71
2022/07/13 05:16:10;;;;;;;;;;;;;;;;;;5081205;28;1497;-70
2022/07/13 05:18:36;;;;;;;;;;;;;;;;;;5082621;28;873;-71
2022/07/13 05:21:01;;;;;;;;;;;;;;;;;;5083162;28;802;-70
2022/07/13 05:23:26;;;;;;;;;;;;;;;;;;5083000;28;988;-71
2022/07/13 05:25:51;;;;;;;;;;;;;;;;;;5083043;28;945;-71
2022/07/13 05:28:17;;;;;;;;;;;;;;;;;;5067807;28;1588;-71
2022/07/13 05:30:42;;;;;;;;;;;;;;;;;;5063982;28;1422;-71
2022/07/13 05:33:07;;;;;;;;;;;;;;;;;;5062758;28;1544;-72
2022/07/13 05:35:32;;;;;;;;;;;;;;;;;;5061083;28;1955;-71
2022/07/13 05:37:57;;;;;;;;;;;;;;;;;;5063141;28;1259;-71
2022/07/13 05:40:23;;;;;;;;;;;;;;;;;;5064558;28;815;-71
2022/07/13 05:42:48;;;;;;;;;;;;;;;;;;5062605;28;1017;-71
2022/07/13 05:45:16;;;;;;;;;;;;;;;;;;5062863;28;827;-71
2022/07/13 05:47:45;;;;;;;;;;;;;;;;;;5068600;28;1512;-71
2022/07/13 05:50:11;;;;;;;;;;;;;;;;;;5082591;28;825;-71
2022/07/13 05:52:36;;;;;;;;;;;;;;;;;;5082336;28;1051;-71
2022/07/13 05:55:02;;;;;;;;;;;;;;;;;;5082673;28;1975;-72
2022/07/13 05:57:27;;;;;;;;;;;;;;;;;;5081917;28;1278;-72
2022/07/13 05:59:52;;;;;;;;;;;;;;;;;;5076533;28;1426;-72
2022/07/13 06:02:17;;;;;;;;;;;;;;;;;;5065331;28;1386;-72
2022/07/13 06:04:43;;;;;;;;;;;;;;;;;;5082206;28;881;-70
2022/07/13 06:07:08;;;;;;;;;;;;;;;;;;5082281;28;1255;-71
2022/07/13 06:09:33;;;;;;;;;;;;;;;;;;5082624;28;1193;-71
2022/07/13 06:11:59;;;;;;;;;;;;;;;;;;5081034;28;1453;-71
2022/07/13 06:14:25;;;;;;;;;;;;;;;;;;5061890;28;1898;-71
2022/07/13 06:16:50;;;;;;;;;;;;;;;;;;5061418;28;1196;-70
2022/07/13 06:19:15;;;;;;;;;;;;;;;;;;5061868;28;1489;-71
2022/07/13 06:21:40;;;;;;;;;;;;;;;;;;5062079;28;818;-71
2022/07/13 06:24:06;;;;;;;;;;;;;;;;;;5062010;28;981;-71
2022/07/13 06:26:31;;;;;;;;;;;;;;;;;;5065720;28;1438;-71
2022/07/13 06:28:57;;;;;;;;;;;;;;;;;;5079476;28;1493;-70
2022/07/13 06:31:22;;;;;;;;;;;;;;;;;;5061597;28;913;-71
2022/07/13 06:33:51;;;;;;;;;;;;;;;;;;5061695;28;1971;-71
2022/07/13 06:36:16;;;;;;;;;;;;;;;;;;5061189;28;1204;-71
2022/07/13 06:38:41;;;;;;;;;;;;;;;;;;5061721;28;882;-71
2022/07/13 06:41:06;;;;;;;;;;;;;;;;;;5061529;28;842;-72
2022/07/13 06:43:31;;;;;;;;;;;;;;;;;;5067467;28;1544;-71
2022/07/13 06:45:57;;;;;;;;;;;;;;;;;;5081842;28;984;-71
2022/07/13 06:48:22;;;;;;;;;;;;;;;;;;5080730;28;1536;-71
2022/07/13 06:50:47;;;;;;;;;;;;;;;;;;5081317;28;1493;-71
2022/07/13 06:53:13;;;;;;;;;;;;;;;;;;5081412;28;1004;-71
2022/07/13 06:55:38;;;;;;;;;;;;;;;;;;5080104;28;1957;-71
2022/07/13 06:58:03;;;;;;;;;;;;;;;;;;5081037;28;1255;-71
2022/07/13 07:00:29;;;;;;;;;;;;;;;;;;5067852;28;1477;-71
2022/07/13 07:02:54;;;;;;;;;;;;;;;;;;5061383;28;818;-71
2022/07/13 07:05:19;;;;;;;;;;;;;;;;;;5061077;28;937;-71
2022/07/13 07:07:45;;;;;;;;;;;;;;;;;;5059819;28;1292;-71
2022/07/13 07:10:10;;;;;;;;;;;;;;;;;;5059998;28;878;-70
2022/07/13 07:12:35;;;;;;;;;;;;;;;;;;5061306;28;798;-71
2022/07/13 07:15:01;;;;;;;;;;;;;;;;;;5059815;28;1941;-71
2022/07/13 07:17:26;;;;;;;;;;;;;;;;;;5079069;28;1537;-71
2022/07/13 07:19:56;;;;;;;;;;;;;;;;;;5081206;28;1059;-70
2022/07/13 07:22:21;;;;;;;;;;;;;;;;;;5080983;28;1036;-71
2022/07/13 07:24:46;;;;;;;;;;;;;;;;;;5081296;28;1066;-71
2022/07/13 07:27:12;;;;;;;;;;;;;;;;;;5080739;28;1201;-71
2022/07/13 07:29:37;;;;;;;;;;;;;;;;;;5083393;28;918;-71
2022/07/13 07:32:02;;;;;;;;;;;;;;;;;;5082736;28;1426;-71
2022/07/13 07:34:28;;;;;;;;;;;;;;;;;;5084607;28;1935;-71
2022/07/13 07:36:53;;;;;;;;;;;;;;;;;;5079601;28;1508;-71
2022/07/13 07:39:18;;;;;;;;;;;;;;;;;;5064470;28;1062;-71
2022/07/13 07:41:44;;;;;;;;;;;;;;;;;;5063177;28;1458;-71
2022/07/13 07:44:09;;;;;;;;;;;;;;;;;;5064244;28;956;-71
2022/07/13 07:46:34;;;;;;;;;;;;;;;;;;5064073;28;1200;-71
2022/07/13 07:48:59;;;;;;;;;;;;;;;;;;5062910;28;1131;-71
2022/07/13 07:51:25;;;;;;;;;;;;;;;;;;5070571;28;1581;-71
2022/07/13 07:53:50;;;;;;;;;;;;;;;;;;5084175;28;1893;-71
2022/07/13 07:56:15;;;;;;;;;;;;;;;;;;5083965;28;1200;-71
2022/07/13 07:58:40;;;;;;;;;;;;;;;;;;5084156;28;948;-71
2022/07/13 08:01:05;;;;;;;;;;;;;;;;;;5083809;28;830;-71
2022/07/13 08:03:31;;;;;;;;;;;;;;;;;;5084104;28;997;-71
2022/07/13 08:05:57;;;;;;;;;;;;;;;;;;5083818;28;1036;-71
2022/07/13 08:08:22;;;;;;;;;;;;;;;;;;5082177;28;1545;-71
2022/07/13 08:10:48;;;;;;;;;;;;;;;;;;5084182;28;1019;-71
2022/07/13 08:13:13;;;;;;;;;;;;;;;;;;5104183;28;1092;-71
2022/07/13 08:15:38;;;;;;;;;;;;;;;;;;5070348;28;1906;-71
2022/07/13 08:18:03;;;;;;;;;;;;;;;;;;5063415;28;1239;-71
2022/07/13 08:20:29;;;;;;;;;;;;;;;;;;5063827;28;803;-71
2022/07/13 08:22:54;;;;;;;;;;;;;;;;;;5079086;28;1498;-71
2022/07/13 08:25:19;;;;;;;;;;;;;;;;;;5084065;28;832;-70
2022/07/13 08:27:44;;;;;;;;;;;;;;;;;;5083036;28;1414;-70
2022/07/13 08:30:13;;;;;;;;;;;;;;;;;;5083884;28;985;-70
2022/07/13 08:32:39;;;;;;;;;;;;;;;;;;5083663;28;925;-70
2022/07/13 08:40:32;;;;;;;;;;;;;;;;;;5063154;28;628;-71
2022/07/13 08:42:58;;;;;;;;;;;;;;;;;;5063300;28;1020;-71
2022/07/13 08:45:24;;;;;;;;;;;;;;;;;;5063293;28;988;-71
2022/07/13 08:47:49;;;;;;;;;;;;;;;;;;5063300;28;1208;-71
2022/07/13 08:50:16;;;;;;;;;;;;;;;;;;5063929;28;1438;-70
2022/07/13 08:52:41;;;;;;;;;;;;;;;;;;5083348;28;940;-70
2022/07/13 08:55:08;;;;;;;;;;;;;;;;;;5083488;28;1914;-69
2022/07/13 08:57:36;;;;;;;;;;;;;;;;;;5081624;28;1444;-70
2022/07/13 09:00:04;;;;;;;;;;;;;;;;;;5083235;28;888;-70
2022/07/13 09:08:45;;;;;;;;;;;;;;;;;;5066859;28;1155;-70
2022/07/13 09:11:11;;;;;;;;;;;;;;;;;;5063138;28;1509;-70
2022/07/13 09:13:39;;;;;;;;;;;;;;;;;;5061615;28;1508;-70
2022/07/13 09:16:18;;;;;;;;;;;;;;;;;;5062859;28;1528;-70
2022/07/13 09:18:44;;;;;;;;;;;;;;;;;;5074920;28;1562;-70
2022/07/13 09:21:09;;;;;;;;;;;;;;;;;;5080021;28;1506;-71
2022/07/13 09:23:35;;;;;;;;;;;;;;;;;;5082691;28;791;-70
2022/07/13 09:26:00;;;;;;;;;;;;;;;;;;5082916;28;972;-70
2022/07/13 09:28:25;;;;;;;;;;;;;;;;;;5082733;28;1271;-70
2022/07/13 09:30:50;;;;;;;;;;;;;;;;;;5082449;28;849;-70
2022/07/13 09:33:30;;;;;;;;;;;;;;;;;;5071492;28;1501;-70
2022/07/13 09:35:56;;;;;;;;;;;;;;;;;;5062348;28;1894;-70
2022/07/13 09:38:31;;;;;;;;;;;;;;;;;;5062358;28;1169;-70
2022/07/13 09:40:59;;;;;;;;;;;;;;;;;;5062430;28;771;-70
2022/07/13 09:46:08;;;;;;;;;;;;;;;;;;5062208;28;1228;-70
2022/07/13 09:48:35;;;;;;;;;;;;;;;;;;5061260;28;1260;-70
2022/07/13 09:51:00;;;;;;;;;;;;;;;;;;5061756;28;1059;-70
2022/07/13 09:53:27;;;;;;;;;;;;;;;;;;5070744;28;1528;-70
2022/07/13 09:55:53;;;;;;;;;;;;;;;;;;5081037;28;1938;-70
2022/07/13 09:58:20;;;;;;;;;;;;;;;;;;5081991;28;1231;-70
2022/07/13 10:00:45;;;;;;;;;;;;;;;;;;5080868;28;1429;-70
2022/07/13 10:03:11;;;;;;;;;;;;;;;;;;5062905;28;1509;-70
2022/07/13 10:05:37;;;;;;;;;;;;;;;;;;5062211;28;949;-70
2022/07/13 10:08:02;;;;;;;;;;;;;;;;;;5061739;28;1505;-70
2022/07/13 10:10:27;;;;;;;;;;;;;;;;;;5061847;28;815;-70
2022/07/13 10:12:54;;;;;;;;;;;;;;;;;;5060750;28;1293;-71
2022/07/13 10:15:19;;;;;;;;;;;;;;;;;;5061743;28;1906;-71
2022/07/13 10:17:48;;;;;;;;;;;;;;;;;;5077343;28;1580;-70
2022/07/13 10:20:16;;;;;;;;;;;;;;;;;;5080085;28;1544;-70
2022/07/13 10:22:51;;;;;;;;;;;;;;;;;;5082054;28;837;-70
2022/07/13 10:25:16;;;;;;;;;;;;;;;;;;5081828;28;937;-70
2022/07/13 10:27:42;;;;;;;;;;;;;;;;;;5081888;28;1255;-70
2022/07/13 10:30:20;;;;;;;;;;;;;;;;;;5081629;28;1513;-70
2022/07/13 10:32:46;;;;;;;;;;;;;;;;;;5081799;28;838;-70
2022/07/13 10:35:12;;;;;;;;;;;;;;;;;;5079719;28;1898;-70
2022/07/13 10:37:56;;;;;;;;;;;;;;;;;;5061070;28;1208;-70
2022/07/13 10:40:22;;;;;;;;;;;;;;;;;;5061600;28;818;-70
2022/07/13 10:42:53;;;;;;;;;;;;;;;;;;5061519;28;844;-69
2022/07/13 10:45:34;;;;;;;;;;;;;;;;;;5061565;28;866;-70
2022/07/13 10:47:59;;;;;;;;;;;;;;;;;;5060945;28;1184;-70
2022/07/13 10:50:36;;;;;;;;;;;;;;;;;;5061414;28;984;-70
2022/07/13 10:53:01;;;;;;;;;;;;;;;;;;5061490;28;1438;-70
2022/07/13 10:55:27;;;;;;;;;;;;;;;;;;5062624;28;1965;-69
2022/07/13 10:57:52;;;;;;;;;;;;;;;;;;5061400;28;1458;-70
2022/07/13 11:00:25;;;;;;;;;;;;;;;;;;5060935;28;870;-70
2022/07/13 11:03:16;;;;;;;;;;;;;;;;;;5061292;28;857;-70
2022/07/13 11:06:02;;;;;;;;;;;;;;;;;;5061105;28;1521;-70
2022/07/13 11:08:28;;;;;;;;;;;;;;;;;;5060820;28;1209;-69
2022/07/13 11:11:08;;;;;;;;;;;;;;;;;;5065452;28;1528;-70
2022/07/13 11:13:34;;;;;;;;;;;;;;;;;;5081550;28;885;-70
2022/07/13 11:15:59;;;;;;;;;;;;;;;;;;5080853;28;1897;-70
2022/07/13 11:18:31;;;;;;;;;;;;;;;;;;5080871;28;1132;-69
2022/07/13 11:20:57;;;;;;;;;;;;;;;;;;5081046;28;865;-70
2022/07/13 11:26:26;;;;;;;;;;;;;;;;;;5073355;28;1469;-70
2022/07/13 11:29:01;;;;;;;;;;;;;;;;;;5060811;28;1307;-70
2022/07/13 11:31:26;;;;;;;;;;;;;;;;;;5059667;28;1320;-70
2022/07/13 11:33:51;;;;;;;;;;;;;;;;;;5060647;28;1902;-70
2022/07/13 11:36:21;;;;;;;;;;;;;;;;;;5059314;28;1224;-70
2022/07/13 11:38:46;;;;;;;;;;;;;;;;;;5060797;28;881;-70
2022/07/13 11:41:19;;;;;;;;;;;;;;;;;;5069997;28;1540;-70
2022/07/13 11:43:45;;;;;;;;;;;;;;;;;;5080839;28;853;-69
2022/07/13 11:46:11;;;;;;;;;;;;;;;;;;5079140;28;1454;-70
2022/07/13 11:48:36;;;;;;;;;;;;;;;;;;5080805;28;822;-70
2022/07/13 11:51:05;;;;;;;;;;;;;;;;;;5080734;28;917;-68
2022/07/13 11:53:31;;;;;;;;;;;;;;;;;;5080874;28;857;-70
2022/07/13 11:56:03;;;;;;;;;;;;;;;;;;5071923;28;1952;-70
2022/07/13 11:58:31;;;;;;;;;;;;;;;;;;5060458;28;1208;-70
2022/07/13 12:00:57;;;;;;;;;;;;;;;;;;5060251;28;838;-70
2022/07/13 12:03:33;;;;;;;;;;;;;;;;;;5060610;28;929;-70
2022/07/13 12:05:59;;;;;;;;;;;;;;;;;;5060387;28;897;-70
2022/07/13 12:08:24;;;;;;;;;;;;;;;;;;5058767;28;1243;-70
2022/07/13 12:10:49;;;;;;;;;;;;;;;;;;5069042;28;1419;-70
2022/07/13 12:13:16;;;;;;;;;;;;;;;;;;5079190;28;1063;-70
2022/07/13 12:15:43;;;;;;;;;;;;;;;;;;5082694;28;1963;-70
2022/07/13 12:18:10;;;;;;;;;;;;;;;;;;5083233;28;1560;-70
2022/07/13 12:20:37;;;;;;;;;;;;;;;;;;5083949;28;889;-70
2022/07/13 12:23:04;;;;;;;;;;;;;;;;;;5083697;28;1008;-69
2022/07/13 12:25:32;;;;;;;;;;;;;;;;;;5076850;28;1592;-70
2022/07/13 12:28:01;;;;;;;;;;;;;;;;;;5063442;28;1259;-70
2022/07/13 12:30:27;;;;;;;;;;;;;;;;;;5063716;28;1422;-69
2022/07/13 12:33:00;;;;;;;;;;;;;;;;;;5063645;28;1055;-70
2022/07/13 12:35:26;;;;;;;;;;;;;;;;;;5063259;28;1898;-70
2022/07/13 12:37:52;;;;;;;;;;;;;;;;;;5064404;28;1557;-70
2022/07/13 12:40:36;;;;;;;;;;;;;;;;;;5063402;28;870;-70
2022/07/13 12:43:01;;;;;;;;;;;;;;;;;;5063525;28;822;-70
2022/07/13 12:45:30;;;;;;;;;;;;;;;;;;5063259;28;1049;-69
2022/07/13 12:47:55;;;;;;;;;;;;;;;;;;5061907;28;1417;-69
2022/07/13 12:50:27;;;;;;;;;;;;;;;;;;5063316;28;831;-70
2022/07/13 12:53:01;;;;;;;;;;;;;;;;;;5078977;28;1454;-70
2022/07/13 12:55:26;;;;;;;;;;;;;;;;;;5083320;28;1894;-70
2022/07/13 12:57:52;;;;;;;;;;;;;;;;;;5082943;28;1203;-70
2022/07/13 13:00:21;;;;;;;;;;;;;;;;;;5083500;28;854;-71
2022/07/13 13:02:47;;;;;;;;;;;;;;;;;;5081728;28;894;-70
2022/07/13 13:05:12;;;;;;;;;;;;;;;;;;5083301;28;905;-70
2022/07/13 13:07:38;;;;;;;;;;;;;;;;;;5067856;28;1489;-70
2022/07/13 13:10:07;;;;;;;;;;;;;;;;;;5063118;28;894;-70
2022/07/13 13:12:32;;;;;;;;;;;;;;;;;;5081600;28;1537;-70
2022/07/13 13:14:59;;;;;;;;;;;;;;;;;;5083068;28;1890;-68
2022/07/13 13:17:24;;;;;;;;;;;;;;;;;;5083154;28;1259;-71
2022/07/13 13:19:49;;;;;;;;;;;;;;;;;;5082898;28;846;-71
2022/07/13 13:22:14;;;;;;;;;;;;;;;;;;5082749;28;1489;-71
2022/07/13 13:24:40;;;;;;;;;;;;;;;;;;5082930;28;1024;-71
2022/07/13 13:27:05;;;;;;;;;;;;;;;;;;5064438;28;1521;-71
2022/07/13 13:32:15;;;;;;;;;;;;;;;;;;5062795;28;696;-70
2022/07/13 13:34:40;;;;;;;;;;;;;;;;;;5062614;28;1907;-70
2022/07/13 13:37:05;;;;;;;;;;;;;;;;;;5062518;28;1208;-71
2022/07/13 13:39:30;;;;;;;;;;;;;;;;;;5063281;28;854;-71
2022/07/13 13:41:55;;;;;;;;;;;;;;;;;;5064704;28;1502;-71
2022/07/13 13:44:21;;;;;;;;;;;;;;;;;;5102209;28;1174;-70
2022/07/13 13:46:47;;;;;;;;;;;;;;;;;;5066595;28;1488;-70
2022/07/13 13:49:12;;;;;;;;;;;;;;;;;;5061276;28;839;-70
2022/07/13 13:51:38;;;;;;;;;;;;;;;;;;5061771;28;954;-70
2022/07/13 13:54:04;;;;;;;;;;;;;;;;;;5062200;28;1898;-70
2022/07/13 13:56:29;;;;;;;;;;;;;;;;;;5062242;28;1183;-69
2022/07/13 13:58:54;;;;;;;;;;;;;;;;;;5062429;28;806;-70
2022/07/13 14:01:19;;;;;;;;;;;;;;;;;;5076130;28;1469;-69
2022/07/13 14:03:44;;;;;;;;;;;;;;;;;;5082132;28;803;-70
2022/07/13 14:06:12;;;;;;;;;;;;;;;;;;5082345;28;1207;-70
2022/07/13 14:08:37;;;;;;;;;;;;;;;;;;5082122;28;865;-70
2022/07/13 14:11:02;;;;;;;;;;;;;;;;;;5072772;28;1426;-70
2022/07/13 14:13:28;;;;;;;;;;;;;;;;;;5062074;28;1016;-70
2022/07/13 14:15:53;;;;;;;;;;;;;;;;;;5061871;28;1964;-70
2022/07/13 14:18:20;;;;;;;;;;;;;;;;;;5061953;28;1263;-69
2022/07/13 14:20:45;;;;;;;;;;;;;;;;;;5061968;28;818;-70
2022/07/13 14:23:10;;;;;;;;;;;;;;;;;;5061837;28;795;-70
2022/07/13 14:25:35;;;;;;;;;;;;;;;;;;5068222;28;1485;-70
2022/07/13 14:28:01;;;;;;;;;;;;;;;;;;5081615;28;1259;-70
2022/07/13 14:30:26;;;;;;;;;;;;;;;;;;5081968;28;893;-70
2022/07/13 14:32:51;;;;;;;;;;;;;;;;;;5081707;28;901;-70
2022/07/13 14:35:17;;;;;;;;;;;;;;;;;;5080644;28;1890;-71
2022/07/13 14:37:42;;;;;;;;;;;;;;;;;;5081100;28;1274;-72
2022/07/13 14:40:07;;;;;;;;;;;;;;;;;;5078003;28;1504;-71
2022/07/13 14:42:33;;;;;;;;;;;;;;;;;;5060354;28;1504;-71
2022/07/13 14:44:58;;;;;;;;;;;;;;;;;;5060693;28;926;-71
2022/07/13 14:47:23;;;;;;;;;;;;;;;;;;5059873;28;1647;-71
2022/07/13 14:49:49;;;;;;;;;;;;;;;;;;5060137;28;1290;-71
2022/07/13 14:52:15;;;;;;;;;;;;;;;;;;5061734;28;980;-70
2022/07/13 14:54:40;;;;;;;;;;;;;;;;;;5061166;28;1902;-70
2022/07/13 14:57:06;;;;;;;;;;;;;;;;;;5081294;28;1275;-70
2022/07/13 14:59:33;;;;;;;;;;;;;;;;;;5082066;28;841;-69
2022/07/13 15:01:58;;;;;;;;;;;;;;;;;;5079949;28;1375;-69
2022/07/13 15:04:23;;;;;;;;;;;;;;;;;;5081547;28;814;-70
2022/07/13 15:06:50;;;;;;;;;;;;;;;;;;5079281;28;1561;-70
2022/07/13 15:09:17;;;;;;;;;;;;;;;;;;5081310;28;868;-70
2022/07/13 15:11:43;;;;;;;;;;;;;;;;;;5062669;28;1548;-70
2022/07/13 15:14:09;;;;;;;;;;;;;;;;;;5061173;28;1898;-70
2022/07/13 15:16:34;;;;;;;;;;;;;;;;;;5060880;28;1188;-70
2022/07/13 15:19:00;;;;;;;;;;;;;;;;;;5061172;28;798;-70
2022/07/13 15:21:25;;;;;;;;;;;;;;;;;;5061100;28;857;-70
2022/07/13 15:23:50;;;;;;;;;;;;;;;;;;5060870;28;802;-70
2022/07/13 15:26:16;;;;;;;;;;;;;;;;;;5075220;28;1498;-70
2022/07/13 15:28:41;;;;;;;;;;;;;;;;;;5080846;28;782;-70
2022/07/13 15:31:07;;;;;;;;;;;;;;;;;;5079675;28;1472;-70
2022/07/13 15:33:32;;;;;;;;;;;;;;;;;;5081039;28;798;-70
2022/07/13 15:36:00;;;;;;;;;;;;;;;;;;5080730;28;1972;-70
2022/07/13 15:38:25;;;;;;;;;;;;;;;;;;5080761;28;1229;-70
2022/07/13 15:43:34;;;;;;;;;;;;;;;;;;5060842;28;676;-71
2022/07/13 15:46:00;;;;;;;;;;;;;;;;;;5059317;28;1253;-70
2022/07/13 15:48:25;;;;;;;;;;;;;;;;;;5060466;28;1224;-70
2022/07/13 15:50:50;;;;;;;;;;;;;;;;;;5062992;28;1509;-69
2022/07/13 15:53:16;;;;;;;;;;;;;;;;;;5064188;28;830;-70
2022/07/13 15:55:41;;;;;;;;;;;;;;;;;;5077197;28;1969;-69
2022/07/13 15:58:06;;;;;;;;;;;;;;;;;;5082480;28;1442;-69
2022/07/13 16:00:31;;;;;;;;;;;;;;;;;;5084216;28;1012;-70
2022/07/13 16:02:56;;;;;;;;;;;;;;;;;;5074701;28;1426;-70
2022/07/13 16:05:22;;;;;;;;;;;;;;;;;;5064032;28;918;-70
2022/07/13 16:07:47;;;;;;;;;;;;;;;;;;5063572;28;1184;-70
2022/07/13 16:10:12;;;;;;;;;;;;;;;;;;5064081;28;803;-71
2022/07/13 16:12:37;;;;;;;;;;;;;;;;;;5064177;28;925;-71
2022/07/13 16:15:03;;;;;;;;;;;;;;;;;;5063933;28;1959;-70
2022/07/13 16:17:28;;;;;;;;;;;;;;;;;;5069727;28;1537;-70
2022/07/13 16:19:55;;;;;;;;;;;;;;;;;;5084178;28;882;-70
2022/07/13 16:22:20;;;;;;;;;;;;;;;;;;5084660;28;810;-70
2022/07/13 16:24:46;;;;;;;;;;;;;;;;;;5084651;28;782;-69
2022/07/13 16:27:11;;;;;;;;;;;;;;;;;;5082635;28;1192;-70
2022/07/13 16:29:36;;;;;;;;;;;;;;;;;;5083592;28;1521;-70
2022/07/13 16:32:01;;;;;;;;;;;;;;;;;;5080366;28;1493;-70
2022/07/13 16:34:27;;;;;;;;;;;;;;;;;;5063516;28;1886;-68
2022/07/13 16:36:52;;;;;;;;;;;;;;;;;;5063081;28;1330;-69
2022/07/13 16:39:17;;;;;;;;;;;;;;;;;;5063936;28;850;-70
2022/07/13 16:41:43;;;;;;;;;;;;;;;;;;5063715;28;1505;-70
2022/07/13 16:44:08;;;;;;;;;;;;;;;;;;5063783;28;744;-69
2022/07/13 16:46:34;;;;;;;;;;;;;;;;;;5063829;28;1494;-70
2022/07/13 16:48:59;;;;;;;;;;;;;;;;;;5084634;28;988;-70
2022/07/13 16:51:24;;;;;;;;;;;;;;;;;;5083779;28;897;-70
2022/07/13 16:53:50;;;;;;;;;;;;;;;;;;5083664;28;849;-70
2022/07/13 16:56:15;;;;;;;;;;;;;;;;;;5084918;28;1894;-70
2022/07/13 16:58:40;;;;;;;;;;;;;;;;;;5084806;28;1159;-70
2022/07/13 17:01:06;;;;;;;;;;;;;;;;;;5084248;28;1533;-71
2022/07/13 17:03:31;;;;;;;;;;;;;;;;;;5068485;28;1524;-71
2022/07/13 17:05:58;;;;;;;;;;;;;;;;;;5065864;28;980;-71
2022/07/13 17:08:23;;;;;;;;;;;;;;;;;;5065638;28;1187;-71
2022/07/13 17:10:48;;;;;;;;;;;;;;;;;;5066346;28;1033;-71
2022/07/13 17:13:13;;;;;;;;;;;;;;;;;;5066645;28;882;-71
2022/07/13 17:15:39;;;;;;;;;;;;;;;;;;5065630;28;1901;-71
2022/07/13 17:18:04;;;;;;;;;;;;;;;;;;5071418;28;1469;-70
2022/07/13 17:20:29;;;;;;;;;;;;;;;;;;5064456;28;1223;-70
2022/07/13 17:22:55;;;;;;;;;;;;;;;;;;5067167;28;1536;-70